createdAt,value
2019-02-05T00:00:58.644Z,3.97
2019-02-05T00:03:29.918Z,3.92
2019-02-05T00:06:03.448Z,3.85
2019-02-05T00:08:34.453Z,3.85
2019-02-05T00:11:13.427Z,3.85
2019-02-05T00:13:44.642Z,3.88
2019-02-05T00:16:16.463Z,3.89
2019-02-05T00:18:51.774Z,3.86
2019-02-05T00:21:26.827Z,3.86
2019-02-05T00:23:59.765Z,3.82
2019-02-05T00:26:39.794Z,3.77
2019-02-05T00:29:13.434Z,3.74
2019-02-05T00:31:44.452Z,3.66
2019-02-05T00:34:20.220Z,3.59
2019-02-05T00:37:01.089Z,3.58
2019-02-05T00:39:33.221Z,3.56
2019-02-05T00:42:05.513Z,3.53
2019-02-05T00:44:36.365Z,3.47
2019-02-05T00:47:09.414Z,3.40
2019-02-05T00:49:40.252Z,3.38
2019-02-05T00:52:13.318Z,3.33
2019-02-05T00:54:44.262Z,3.30
2019-02-05T00:57:15.326Z,3.26
2019-02-05T00:59:49.384Z,3.30
2019-02-05T01:02:24.125Z,3.33
2019-02-05T01:04:55.307Z,3.36
2019-02-05T01:07:26.206Z,3.40
2019-02-05T01:09:57.076Z,3.46
2019-02-05T01:12:30.141Z,3.49
2019-02-05T01:15:02.216Z,3.49
2019-02-05T01:17:36.835Z,3.44
2019-02-05T01:20:12.286Z,3.43
2019-02-05T01:22:43.225Z,3.45
2019-02-05T01:25:17.698Z,3.45
2019-02-05T01:27:55.183Z,3.44
2019-02-05T01:30:34.702Z,3.40
2019-02-05T01:33:10.955Z,3.41
2019-02-05T01:35:44.683Z,3.47
2019-02-05T01:38:17.465Z,3.49
2019-02-05T01:40:48.358Z,3.48
2019-02-05T01:43:19.242Z,3.52
2019-02-05T01:45:50.056Z,3.48
2019-02-05T01:48:20.927Z,3.50
2019-02-05T01:50:51.960Z,3.53
2019-02-05T01:53:22.818Z,3.50
2019-02-05T01:55:53.558Z,3.47
2019-02-05T01:58:24.536Z,3.50
2019-02-05T02:00:57.577Z,3.49
2019-02-05T02:03:28.588Z,3.58
2019-02-05T02:05:59.359Z,3.63
2019-02-05T02:08:33.064Z,3.64
2019-02-05T02:11:03.999Z,3.70
2019-02-05T02:13:35.487Z,3.75
2019-02-05T02:16:06.765Z,3.71
2019-02-05T02:18:37.528Z,3.69
2019-02-05T02:21:10.101Z,3.71
2019-02-05T02:23:40.818Z,3.73
2019-02-05T02:26:13.716Z,3.76
2019-02-05T02:28:44.687Z,3.79
2019-02-05T02:31:18.305Z,3.79
2019-02-05T02:33:49.166Z,3.80
2019-02-05T02:36:25.583Z,3.76
2019-02-05T02:38:56.598Z,3.81
2019-02-05T02:41:27.759Z,3.75
2019-02-05T02:43:58.621Z,3.71
2019-02-05T02:46:30.721Z,3.70
2019-02-05T02:49:03.328Z,3.70
2019-02-05T02:51:36.525Z,3.72
2019-02-05T02:54:13.550Z,3.74
2019-02-05T02:56:47.342Z,3.76
2019-02-05T02:59:21.430Z,3.70
2019-02-05T03:01:52.251Z,3.66
2019-02-05T03:04:24.472Z,3.69
2019-02-05T03:06:56.653Z,3.75
2019-02-05T03:09:29.415Z,3.80
2019-02-05T03:12:02.666Z,3.81
2019-02-05T03:14:33.717Z,3.83
2019-02-05T03:17:04.853Z,3.89
2019-02-05T03:19:35.922Z,3.94
2019-02-05T03:22:06.863Z,4.00
2019-02-05T03:24:38.216Z,3.97
2019-02-05T03:27:17.235Z,3.96
2019-02-05T03:29:41.488Z,3.94
2019-02-05T03:32:14.343Z,3.96
2019-02-05T03:34:45.583Z,3.95
2019-02-05T03:37:16.350Z,3.95
2019-02-05T03:39:47.105Z,4.01
2019-02-05T03:42:19.355Z,4.05
2019-02-05T03:44:50.107Z,4.04
2019-02-05T03:47:21.353Z,4.05
2019-02-05T03:49:52.979Z,4.08
2019-02-05T03:52:54.636Z,4.05
2019-02-05T03:56:01.301Z,4.06
2019-02-05T03:59:24.836Z,4.04
2019-02-05T04:02:35.456Z,3.95
2019-02-05T04:05:50.276Z,3.79
2019-02-05T04:09:11.564Z,3.62
2019-02-05T04:12:20.883Z,3.59
2019-02-05T04:15:29.816Z,3.57
2019-02-05T04:18:45.527Z,3.55
2019-02-05T04:22:20.751Z,3.60
2019-02-05T04:25:44.838Z,3.66
2019-02-05T04:29:00.647Z,3.65
2019-02-05T04:32:26.027Z,3.80
2019-02-05T04:35:59.273Z,3.90
2019-02-05T04:39:28.879Z,3.97
2019-02-05T04:42:48.264Z,4.08
2019-02-05T04:46:20.891Z,4.14
2019-02-05T04:50:29.378Z,4.15
2019-02-05T04:53:44.147Z,4.15
2019-02-05T04:56:59.321Z,4.08
2019-02-05T05:00:24.479Z,4.00
2019-02-05T05:03:51.399Z,4.02
2019-02-05T05:07:31.336Z,4.05
2019-02-05T05:10:05.191Z,4.00
2019-02-05T05:12:36.118Z,4.06
2019-02-05T05:15:12.652Z,4.13
2019-02-05T05:17:43.917Z,4.20
2019-02-05T05:20:17.468Z,4.22
2019-02-05T05:22:51.681Z,4.19
2019-02-05T05:25:24.534Z,4.21
2019-02-05T05:28:10.168Z,4.27
2019-02-05T05:30:43.328Z,4.25
2019-02-05T05:33:19.704Z,4.22
2019-02-05T05:36:04.193Z,4.17
2019-02-05T05:38:38.303Z,4.12
2019-02-05T05:41:12.694Z,4.08
2019-02-05T05:43:45.335Z,4.02
2019-02-05T05:46:16.126Z,3.95
2019-02-05T05:48:50.057Z,3.98
2019-02-05T05:51:21.295Z,4.08
2019-02-05T05:53:55.179Z,4.20
2019-02-05T05:56:31.869Z,4.21
2019-02-05T05:59:04.915Z,4.18
2019-02-05T06:01:44.159Z,4.19
2019-02-05T06:04:19.237Z,4.20
2019-02-05T06:06:56.906Z,4.21
2019-02-05T06:09:29.981Z,4.24
2019-02-05T06:12:00.864Z,4.23
2019-02-05T06:14:32.602Z,4.21
2019-02-05T06:17:03.521Z,4.21
2019-02-05T06:19:40.078Z,4.23
2019-02-05T06:22:11.533Z,4.16
2019-02-05T06:24:42.499Z,4.12
2019-02-05T06:27:14.349Z,4.11
2019-02-05T06:29:45.266Z,4.17
2019-02-05T06:32:18.305Z,4.21
2019-02-05T06:34:52.233Z,4.26
2019-02-05T06:37:31.179Z,4.26
2019-02-05T06:40:02.071Z,4.27
2019-02-05T06:42:35.876Z,4.30
2019-02-05T06:45:08.934Z,4.36
2019-02-05T06:47:40.292Z,4.34
2019-02-05T06:50:17.394Z,4.35
2019-02-05T06:52:49.889Z,4.40
2019-02-05T06:55:20.824Z,4.45
2019-02-05T06:57:56.186Z,4.49
2019-02-05T07:00:34.851Z,4.53
2019-02-05T07:03:06.334Z,4.59
2019-02-05T07:05:41.005Z,4.66
2019-02-05T07:08:13.198Z,4.73
2019-02-05T07:10:50.259Z,4.78
2019-02-05T07:13:31.455Z,4.75
2019-02-05T07:16:20.743Z,4.74
2019-02-05T07:18:52.804Z,4.79
2019-02-05T07:21:38.837Z,4.80
2019-02-05T07:24:55.454Z,4.88
2019-02-05T07:26:53.549Z,4.90
2019-02-05T07:29:41.786Z,4.87
2019-02-05T07:32:31.807Z,4.90
2019-02-05T07:35:09.600Z,4.90
2019-02-05T07:37:46.005Z,4.95
2019-02-05T07:40:38.219Z,4.93
2019-02-05T07:43:18.486Z,5.01
2019-02-05T07:45:45.069Z,5.06
2019-02-05T07:48:42.819Z,5.10
2019-02-05T07:51:20.561Z,5.23
2019-02-05T07:54:00.195Z,5.27
2019-02-05T07:56:39.196Z,5.31
2019-02-05T07:59:14.575Z,5.28
2019-02-05T08:01:51.540Z,5.34
2019-02-05T08:04:31.746Z,5.38
2019-02-05T08:07:16.094Z,5.44
2019-02-05T08:09:46.168Z,5.48
2019-02-05T08:12:29.724Z,5.53
2019-02-05T08:15:09.385Z,5.57
2019-02-05T08:18:29.984Z,5.73
2019-02-05T08:21:24.793Z,5.74
2019-02-05T08:24:01.673Z,5.87
2019-02-05T08:26:38.447Z,5.95
2019-02-05T08:29:21.462Z,5.95
2019-02-05T08:31:51.697Z,6.06
2019-02-05T08:34:31.547Z,6.00
2019-02-05T08:37:18.149Z,5.99
2019-02-05T08:40:05.125Z,6.04
2019-02-05T08:42:59.134Z,6.10
2019-02-05T08:45:56.726Z,6.16
2019-02-05T08:48:32.764Z,6.28
2019-02-05T08:51:07.379Z,6.36
2019-02-05T08:53:43.200Z,6.34
2019-02-05T08:56:23.944Z,6.38
2019-02-05T08:59:02.428Z,6.38
2019-02-05T09:01:46.534Z,6.42
2019-02-05T09:04:26.558Z,6.48
2019-02-05T09:07:08.855Z,6.48
2019-02-05T09:09:43.891Z,6.52
2019-02-05T09:12:31.393Z,6.58
2019-02-05T09:15:29.169Z,6.60
2019-02-05T09:17:55.095Z,6.74
2019-02-05T09:20:33.197Z,6.85
2019-02-05T09:23:21.919Z,7.08
2019-02-05T09:26:02.447Z,7.08
2019-02-05T09:28:42.858Z,7.17
2019-02-05T09:31:38.270Z,7.06
2019-02-05T09:34:18.276Z,6.91
2019-02-05T09:37:10.859Z,6.96
2019-02-05T09:39:58.973Z,6.93
2019-02-05T09:42:29.490Z,7.01
2019-02-05T09:45:19.974Z,7.17
2019-02-05T09:47:58.839Z,7.25
2019-02-05T09:50:44.332Z,7.24
2019-02-05T09:53:13.590Z,7.35
2019-02-05T09:55:54.137Z,7.41
2019-02-05T09:58:32.079Z,7.39
2019-02-05T10:01:04.710Z,7.42
2019-02-05T10:03:46.193Z,7.44
2019-02-05T10:06:18.493Z,7.35
2019-02-05T10:08:56.414Z,7.24
2019-02-05T10:11:35.940Z,7.22
2019-02-05T10:14:08.906Z,7.32
2019-02-05T10:16:46.392Z,7.33
2019-02-05T10:19:26.695Z,7.34
2019-02-05T10:21:58.056Z,7.40
2019-02-05T10:24:56.060Z,7.49
2019-02-05T10:27:32.251Z,7.45
2019-02-05T10:30:10.608Z,7.43
2019-02-05T10:32:48.291Z,7.49
2019-02-05T10:35:24.709Z,7.44
2019-02-05T10:40:46.456Z,7.40
2019-02-05T10:43:25.736Z,7.45
2019-02-05T10:46:05.835Z,7.40
2019-02-05T10:48:40.666Z,7.24
2019-02-05T10:51:23.978Z,7.15
2019-02-05T10:53:57.334Z,7.18
2019-02-05T10:56:50.989Z,7.11
2019-02-05T10:59:33.148Z,7.12
2019-02-05T11:05:26.816Z,7.25
2019-02-05T11:08:12.895Z,7.33
2019-02-05T11:10:46.269Z,7.41
2019-02-05T11:13:24.833Z,7.45
2019-02-05T11:15:54.654Z,7.39
2019-02-05T11:18:35.097Z,7.35
2019-02-05T11:21:06.415Z,7.39
2019-02-05T11:23:39.158Z,7.43
2019-02-05T11:26:19.886Z,7.51
2019-02-05T11:28:58.576Z,7.54
2019-02-05T11:31:39.799Z,7.44
2019-02-05T11:34:16.602Z,7.52
2019-02-05T11:36:50.275Z,7.45
2019-02-05T11:39:42.792Z,7.39
2019-02-05T11:42:27.471Z,7.53
2019-02-05T11:45:02.530Z,7.60
2019-02-05T11:48:03.137Z,7.64
2019-02-05T11:51:32.801Z,7.63
2019-02-05T11:54:03.901Z,7.75
2019-02-05T11:56:47.102Z,7.81
2019-02-05T11:59:23.803Z,7.87
2019-02-05T12:01:58.806Z,7.91
2019-02-05T12:04:32.219Z,8.00
2019-02-05T12:07:11.978Z,8.00
2019-02-05T12:09:51.147Z,8.06
2019-02-05T12:12:33.521Z,8.14
2019-02-05T12:15:09.507Z,8.10
2019-02-05T12:17:44.360Z,8.05
2019-02-05T12:20:23.325Z,8.10
2019-02-05T12:22:57.549Z,8.31
2019-02-05T12:25:35.407Z,8.48
2019-02-05T12:28:06.346Z,8.52
2019-02-05T12:30:44.959Z,8.42
2019-02-05T12:33:42.603Z,8.37
2019-02-05T12:36:00.037Z,8.35
2019-02-05T12:38:36.385Z,8.36
2019-02-05T12:41:13.731Z,8.38
2019-02-05T12:44:12.908Z,8.45
2019-02-05T12:46:50.438Z,8.45
2019-02-05T12:49:25.146Z,8.57
2019-02-05T12:54:53.481Z,8.68
2019-02-05T12:57:27.514Z,8.69
2019-02-05T13:00:12.781Z,8.87
2019-02-05T13:02:59.515Z,8.87
2019-02-05T13:05:40.605Z,8.97
2019-02-05T13:08:22.109Z,9.06
2019-02-05T13:10:57.857Z,9.15
2019-02-05T13:13:31.783Z,9.14
2019-02-05T13:16:43.252Z,9.05
2019-02-05T13:19:16.936Z,8.95
2019-02-05T13:21:53.114Z,8.85
2019-02-05T13:24:27.826Z,8.89
2019-02-05T13:27:06.330Z,8.87
2019-02-05T13:29:44.334Z,8.84
2019-02-05T13:32:17.657Z,8.80
2019-02-05T13:34:53.640Z,8.78
2019-02-05T13:37:44.918Z,8.79
2019-02-05T13:40:36.159Z,8.72
2019-02-05T13:43:12.055Z,8.77
2019-02-05T13:45:58.468Z,8.83
2019-02-05T13:48:47.689Z,8.73
2019-02-05T13:51:33.196Z,8.60
2019-02-05T13:54:18.271Z,8.56
2019-02-05T13:56:53.661Z,8.55
2019-02-05T14:00:10.276Z,8.55
2019-02-05T14:02:49.154Z,8.55
2019-02-05T14:05:29.723Z,8.62
2019-02-05T14:08:06.386Z,8.66
2019-02-05T14:10:44.043Z,8.71
2019-02-05T14:13:16.569Z,8.68
2019-02-05T14:15:51.195Z,8.58
2019-02-05T14:18:24.361Z,8.44
2019-02-05T14:20:56.875Z,8.44
2019-02-05T14:23:28.306Z,8.44
2019-02-05T14:26:08.955Z,8.43
2019-02-05T14:28:44.359Z,8.41
2019-02-05T14:31:31.073Z,8.40
2019-02-05T14:34:08.594Z,8.39
2019-02-05T14:36:46.241Z,8.32
2019-02-05T14:39:29.210Z,8.21
2019-02-05T14:42:04.983Z,8.15
2019-02-05T14:44:42.502Z,8.12
2019-02-05T14:47:13.562Z,8.10
2019-02-05T14:49:46.008Z,8.15
2019-02-05T14:52:28.615Z,8.16
2019-02-05T14:55:00.919Z,8.11
2019-02-05T14:57:50.490Z,8.12
2019-02-05T15:00:44.407Z,8.13
2019-02-05T15:03:16.340Z,8.08
2019-02-05T15:05:53.712Z,8.05
2019-02-05T15:08:28.127Z,8.08
2019-02-05T15:11:10.946Z,8.13
2019-02-05T15:13:49.173Z,8.15
2019-02-05T15:16:39.258Z,8.13
2019-02-05T15:19:20.937Z,8.09
2019-02-05T15:21:53.669Z,8.13
2019-02-05T15:24:37.149Z,8.08
2019-02-05T15:27:13.077Z,8.03
2019-02-05T15:30:06.460Z,8.04
2019-02-05T15:33:10.203Z,8.02
2019-02-05T15:36:06.571Z,8.00
2019-02-05T15:38:58.507Z,7.97
2019-02-05T15:41:52.009Z,7.93
2019-02-05T15:44:38.544Z,7.89
2019-02-05T15:47:40.956Z,7.87
2019-02-05T15:50:20.318Z,7.87
2019-02-05T15:52:59.402Z,7.89
2019-02-05T15:55:50.892Z,7.86
2019-02-05T15:58:49.733Z,7.87
2019-02-05T16:02:06.821Z,7.81
2019-02-05T16:04:20.466Z,7.74
2019-02-05T16:06:57.504Z,7.71
2019-02-05T16:09:43.093Z,7.72
2019-02-05T16:12:43.157Z,7.70
2019-02-05T16:15:07.254Z,7.61
2019-02-05T16:17:47.283Z,7.58
2019-02-05T16:20:30.407Z,7.53
2019-02-05T16:23:06.884Z,7.46
2019-02-05T16:25:50.180Z,7.42
2019-02-05T16:28:39.732Z,7.36
2019-02-05T16:31:20.232Z,7.28
2019-02-05T16:34:03.112Z,7.27
2019-02-05T16:36:35.807Z,7.30
2019-02-05T16:39:17.204Z,7.35
2019-02-05T16:42:01.601Z,7.40
2019-02-05T16:44:33.634Z,7.41
2019-02-05T16:47:12.830Z,7.42
2019-02-05T16:49:47.923Z,7.42
2019-02-05T16:52:20.532Z,7.44
2019-02-05T16:55:05.498Z,7.43
2019-02-05T16:57:38.792Z,7.38
2019-02-05T17:00:24.164Z,7.39
2019-02-05T17:02:57.324Z,7.33
2019-02-05T17:05:36.812Z,7.33
2019-02-05T17:08:15.348Z,7.32
2019-02-05T17:10:47.171Z,7.30
2019-02-05T17:13:20.780Z,7.24
2019-02-05T17:15:58.785Z,7.22
2019-02-05T17:18:30.163Z,7.19
2019-02-05T17:21:03.044Z,7.22
2019-02-05T17:27:32.251Z,7.13
2019-02-05T17:30:08.145Z,7.10
2019-02-05T17:32:40.635Z,7.08
2019-02-05T17:35:20.469Z,7.07
2019-02-05T17:41:07.855Z,7.07
2019-02-05T17:43:40.737Z,7.08
2019-02-05T17:46:21.023Z,7.06
2019-02-05T17:49:15.341Z,7.00
2019-02-05T17:52:16.477Z,6.95
2019-02-05T17:54:51.785Z,6.96
2019-02-05T17:57:48.967Z,6.97
2019-02-05T18:01:04.611Z,6.98
2019-02-05T18:03:49.736Z,6.92
2019-02-05T18:06:34.561Z,6.93
2019-02-05T18:09:36.372Z,6.96
2019-02-05T18:15:01.041Z,7.00
2019-02-05T18:17:40.286Z,7.03
2019-02-05T18:20:26.583Z,6.98
2019-02-05T18:23:05.025Z,6.95
2019-02-05T18:25:36.154Z,6.94
2019-02-05T18:28:19.490Z,6.94
2019-02-05T18:30:50.706Z,6.90
2019-02-05T18:33:27.626Z,6.91
2019-02-05T18:36:33.254Z,6.89
2019-02-05T18:38:56.154Z,6.89
2019-02-05T18:41:28.762Z,6.93
2019-02-05T18:43:59.929Z,7.01
2019-02-05T18:46:44.914Z,7.01
2019-02-05T18:49:21.580Z,7.00
2019-02-05T18:51:57.324Z,6.95
2019-02-05T18:54:37.509Z,6.93
2019-02-05T18:57:11.103Z,6.94
2019-02-05T18:59:47.983Z,6.88
2019-02-05T19:02:19.028Z,6.81
2019-02-05T19:08:19.326Z,6.73
2019-02-05T19:08:50.439Z,6.79
2019-02-05T19:11:35.764Z,6.67
2019-02-05T19:14:29.124Z,6.61
2019-02-05T19:17:07.681Z,6.60
2019-02-05T19:19:42.369Z,6.49
2019-02-05T19:22:22.088Z,6.38
2019-02-05T19:25:03.933Z,6.28
2019-02-05T19:27:34.566Z,6.23
2019-02-05T19:30:11.937Z,6.19
2019-02-05T19:32:49.603Z,6.13
2019-02-05T19:35:28.621Z,6.12
2019-02-05T19:38:00.011Z,6.10
2019-02-05T19:40:31.116Z,6.09
2019-02-05T19:43:05.966Z,6.03
2019-02-05T19:45:59.853Z,5.99
2019-02-05T19:52:48.642Z,5.94
2019-02-05T19:55:23.823Z,5.94
2019-02-05T19:57:59.605Z,5.92
2019-02-05T20:01:20.840Z,5.94
2019-02-05T20:03:59.471Z,5.94
2019-02-05T20:06:30.334Z,5.96
2019-02-05T20:11:02.838Z,5.98
2019-02-05T20:12:33.261Z,6.02
2019-02-05T20:20:16.713Z,6.13
2019-02-05T20:30:34.002Z,6.32
2019-02-05T20:33:21.625Z,6.37
2019-02-05T20:36:05.724Z,6.42
2019-02-05T20:39:31.145Z,6.48
2019-02-05T20:41:56.043Z,6.51
2019-02-05T20:44:45.437Z,6.50
2019-02-05T20:47:26.959Z,6.50
2019-02-05T20:50:28.041Z,6.54
2019-02-05T20:52:57.757Z,6.48
2019-02-05T20:55:53.452Z,6.48
2019-02-05T21:02:24.234Z,6.56
2019-02-05T21:05:45.693Z,6.59
2019-02-05T21:08:14.322Z,6.61
2019-02-05T21:10:38.859Z,6.62
2019-02-05T21:13:26.258Z,6.69
2019-02-05T21:16:51.681Z,6.73
2019-02-05T21:19:32.443Z,6.71
2019-02-05T21:22:49.205Z,6.71
2019-02-05T21:28:43.510Z,6.69
2019-02-05T21:31:29.613Z,6.73
2019-02-05T21:34:56.072Z,6.71
2019-02-05T21:37:36.587Z,6.70
2019-02-05T21:40:31.423Z,6.74
2019-02-05T21:43:36.016Z,6.69
2019-02-05T21:46:21.466Z,6.66
2019-02-05T21:48:49.139Z,6.66
2019-02-05T21:56:48.063Z,6.64
2019-02-05T21:58:02.599Z,6.65
2019-02-05T22:01:32.309Z,6.61
2019-02-05T22:04:12.198Z,6.56
2019-02-05T22:06:46.243Z,6.51
2019-02-05T22:09:28.113Z,6.50
2019-02-05T22:12:16.846Z,6.48
2019-02-05T22:14:59.263Z,6.46
2019-02-05T22:17:38.123Z,6.45
2019-02-05T22:20:25.733Z,6.42
2019-02-05T22:23:07.629Z,6.37
2019-02-05T22:25:45.130Z,6.31
2019-02-05T22:28:35.083Z,6.31
2019-02-05T22:31:09.946Z,6.25
2019-02-05T22:33:45.202Z,6.27
2019-02-05T22:36:22.693Z,6.32
2019-02-05T22:38:57.583Z,6.37
2019-02-05T22:41:44.757Z,6.44
2019-02-05T22:44:29.954Z,6.52
2019-02-05T22:46:55.580Z,6.59
2019-02-05T22:49:33.575Z,6.66
2019-02-05T22:52:04.591Z,6.72
2019-02-05T22:54:37.541Z,6.72
2019-02-05T22:57:10.798Z,6.73
2019-02-05T22:59:45.442Z,6.73
2019-02-05T23:02:22.661Z,6.74
2019-02-05T23:05:55.668Z,6.75
2019-02-05T23:08:47.075Z,6.74
2019-02-05T23:12:13.113Z,6.77
2019-02-05T23:14:59.624Z,6.78
2019-02-05T23:17:34.321Z,6.69
2019-02-05T23:20:10.320Z,6.67
2019-02-05T23:22:41.411Z,6.69
2019-02-05T23:25:22.827Z,6.65
2019-02-05T23:27:56.374Z,6.62
2019-02-05T23:30:31.451Z,6.60
2019-02-05T23:33:02.555Z,6.59
2019-02-05T23:35:34.053Z,6.51
2019-02-05T23:38:06.547Z,6.52
2019-02-05T23:40:41.149Z,6.52
2019-02-05T23:43:20.661Z,6.48
2019-02-05T23:46:21.824Z,6.48
2019-02-05T23:48:37.180Z,6.49
2019-02-05T23:51:09.724Z,6.51
2019-02-05T23:53:44.764Z,6.54
2019-02-05T23:56:25.656Z,6.60
2019-02-05T23:59:11.126Z,6.64
